createdAt,value
2018-11-02T00:00:49.621Z,-19358.79
2018-11-02T00:03:17.932Z,-19416.50
2018-11-02T00:05:46.250Z,-19674.13
2018-11-02T00:08:14.667Z,-19539.97
2018-11-02T00:10:43.090Z,-19756.18
2018-11-02T00:13:11.433Z,-19797.38
2018-11-02T00:15:39.719Z,-19986.67
2018-11-02T00:18:08.200Z,-19899.93
2018-11-02T00:20:36.548Z,-20134.67
2018-11-02T00:23:05.096Z,-20022.75
2018-11-02T00:25:33.431Z,-19991.68
2018-11-02T00:28:01.840Z,-20322.17
2018-11-02T00:30:30.304Z,-20052.48
2018-11-02T00:32:58.688Z,-20015.36
2018-11-02T00:35:28.225Z,-19971.67
2018-11-02T00:37:56.817Z,-20202.79
2018-11-02T00:40:25.151Z,-19945.63
2018-11-02T00:42:53.561Z,-19742.64
2018-11-02T00:45:21.899Z,-19715.02
2018-11-02T00:47:50.293Z,-19758.63
2018-11-02T00:50:18.660Z,-19983.34
2018-11-02T00:52:46.980Z,-19822.14
2018-11-02T00:55:15.415Z,-19557.23
2018-11-02T00:57:43.809Z,-19601.87
2018-11-02T01:00:13.871Z,-19597.41
2018-11-02T01:02:42.411Z,-19487.12
2018-11-02T01:05:11.063Z,-19486.61
2018-11-02T01:07:39.496Z,-19605.63
2018-11-02T01:10:07.940Z,-19208.52
2018-11-02T01:12:37.183Z,-19238.64
2018-11-02T01:15:06.812Z,-19239.93
2018-11-02T01:17:35.266Z,-19146.39
2018-11-02T01:20:03.659Z,-19155.77
2018-11-02T01:22:32.103Z,-18714.11
2018-11-02T01:25:00.474Z,-18953.12
2018-11-02T01:27:28.827Z,-18769.65
2018-11-02T01:29:57.197Z,-18631.06
2018-11-02T01:32:25.575Z,-18486.63
2018-11-02T01:34:54.000Z,-18166.79
2018-11-02T01:37:22.343Z,-18495.41
2018-11-02T01:39:50.931Z,-17973.66
2018-11-02T01:42:19.287Z,-18410.18
2018-11-02T01:44:47.651Z,-18140.52
2018-11-02T01:47:16.063Z,-18198.73
2018-11-02T01:49:44.474Z,-18179.01
2018-11-02T01:52:12.786Z,-17792.60
2018-11-02T01:54:41.076Z,-18259.09
2018-11-02T01:57:09.472Z,-17999.14
2018-11-02T01:59:38.010Z,-17637.58
2018-11-02T02:02:06.389Z,-17745.05
2018-11-02T02:04:34.787Z,-18140.63
2018-11-02T02:07:03.132Z,-18337.69
2018-11-02T02:09:31.502Z,-18434.81
2018-11-02T02:11:59.820Z,-18323.90
2018-11-02T02:14:28.163Z,-18077.21
2018-11-02T02:16:56.687Z,-18101.13
2018-11-02T02:19:25.031Z,-17867.19
2018-11-02T02:21:53.371Z,-17980.10
2018-11-02T02:24:21.679Z,-18051.59
2018-11-02T02:29:21.728Z,-18472.63
2018-11-02T02:31:50.108Z,-18035.85
2018-11-02T02:34:18.593Z,-19073.35
2018-11-02T02:36:46.993Z,-18744.12
2018-11-02T02:39:15.351Z,-19183.41
2018-11-02T02:41:43.883Z,-18548.95
2018-11-02T02:44:12.224Z,-18320.29
2018-11-02T02:46:40.533Z,-19077.97
2018-11-02T02:49:08.889Z,-18397.94
2018-11-02T02:51:37.164Z,-18118.49
2018-11-02T02:54:05.539Z,-18430.53
2018-11-02T02:56:33.852Z,-18384.65
2018-11-02T02:59:02.220Z,-18405.97
2018-11-02T03:01:30.595Z,-18516.87
2018-11-02T03:03:58.954Z,-18900.09
2018-11-02T03:06:27.471Z,-18570.53
2018-11-02T03:08:56.000Z,-18817.80
2018-11-02T03:11:24.507Z,-18890.75
2018-11-02T03:13:52.878Z,-19094.84
2018-11-02T03:16:21.284Z,-18918.38
2018-11-02T03:18:49.756Z,-18882.03
2018-11-02T03:21:18.085Z,-19099.75
2018-11-02T03:23:46.491Z,-19188.66
2018-11-02T03:26:14.841Z,-19460.66
2018-11-02T03:28:43.174Z,-19244.09
2018-11-02T03:31:11.535Z,-19180.54
2018-11-02T03:33:39.820Z,-18930.63
2018-11-02T03:36:08.165Z,-19434.49
2018-11-02T03:38:36.512Z,-19002.42
2018-11-02T03:41:04.983Z,-18993.22
2018-11-02T03:43:33.304Z,-18778.27
2018-11-02T03:46:01.551Z,-19043.70
2018-11-02T03:48:29.860Z,-18937.86
2018-11-02T03:50:58.283Z,-19355.13
2018-11-02T03:53:26.696Z,-18978.97
2018-11-02T03:55:56.319Z,-18750.40
2018-11-02T03:58:24.696Z,-18597.71
2018-11-02T04:00:53.477Z,-18859.02
2018-11-02T04:03:21.829Z,-18709.77
2018-11-02T04:05:50.377Z,-18546.63
2018-11-02T04:08:18.738Z,-18479.23
2018-11-02T04:10:47.153Z,-18745.24
2018-11-02T04:13:15.456Z,-18635.87
2018-11-02T04:15:43.710Z,-18889.64
2018-11-02T04:18:12.066Z,-18749.42
2018-11-02T04:20:40.601Z,-18746.10
2018-11-02T04:23:08.928Z,-18635.37
2018-11-02T04:25:37.259Z,-18856.97
2018-11-02T04:28:05.886Z,-18766.60
2018-11-02T04:30:34.230Z,-18477.91
2018-11-02T04:33:02.546Z,-18534.37
2018-11-02T04:35:30.888Z,-18504.31
2018-11-02T04:37:59.199Z,-18768.07
2018-11-02T04:40:27.485Z,-18445.54
2018-11-02T04:42:55.956Z,-18285.82
2018-11-02T04:45:32.446Z,-18401.26
2018-11-02T04:48:01.145Z,-18206.45
2018-11-02T04:50:29.466Z,-18269.75
2018-11-02T04:52:57.880Z,-18192.43
2018-11-02T04:55:26.276Z,-17878.51
2018-11-02T04:57:54.603Z,-17903.17
2018-11-02T05:00:22.917Z,-18134.80
2018-11-02T05:02:51.193Z,-17946.95
2018-11-02T05:05:19.536Z,-18006.77
2018-11-02T05:07:48.100Z,-18155.83
2018-11-02T05:10:16.383Z,-17950.33
2018-11-02T05:12:44.924Z,-17956.28
2018-11-02T05:15:13.267Z,-17960.31
2018-11-02T05:17:41.537Z,-18087.17
2018-11-02T05:20:10.923Z,-18219.80
2018-11-02T05:22:39.239Z,-17590.52
2018-11-02T05:25:08.734Z,-17196.12
2018-11-02T05:27:37.186Z,-17271.30
2018-11-02T05:30:06.211Z,-17187.99
2018-11-02T05:32:34.551Z,-16610.19
2018-11-02T05:35:02.855Z,-16763.82
2018-11-02T05:37:31.157Z,-16637.82
2018-11-02T05:39:59.468Z,-16128.66
2018-11-02T05:42:27.923Z,-16647.07
2018-11-02T05:44:56.280Z,-17066.89
2018-11-02T05:47:24.712Z,-16513.71
2018-11-02T05:49:52.942Z,-16233.22
2018-11-02T05:52:21.252Z,-15893.69
2018-11-02T05:54:49.599Z,-16182.62
2018-11-02T05:57:18.495Z,-16603.86
2018-11-02T05:59:46.797Z,-16318.69
2018-11-02T06:02:15.125Z,-16404.36
2018-11-02T06:04:43.462Z,-16392.70
2018-11-02T06:07:11.841Z,-16262.25
2018-11-02T06:09:40.115Z,-15784.98
2018-11-02T06:12:08.437Z,-16376.98
2018-11-02T06:14:36.803Z,-16882.30
2018-11-02T06:17:05.611Z,-17214.73
2018-11-02T06:19:34.028Z,-17337.76
2018-11-02T06:22:02.423Z,-16782.43
2018-11-02T06:24:30.816Z,-16083.70
2018-11-02T06:26:59.284Z,-15921.14
2018-11-02T06:29:27.766Z,-15313.49
2018-11-02T06:31:56.239Z,-15161.98
2018-11-02T06:34:24.605Z,-15287.64
2018-11-02T06:36:52.996Z,-15507.51
2018-11-02T06:39:21.372Z,-15051.91
2018-11-02T06:41:49.676Z,-15036.11
2018-11-02T06:44:17.987Z,-15917.30
2018-11-02T06:46:46.300Z,-15411.01
2018-11-02T06:49:14.684Z,-15065.73
2018-11-02T06:51:43.017Z,-15626.41
2018-11-02T06:54:11.675Z,-14901.71
2018-11-02T06:56:40.089Z,-15882.84
2018-11-02T06:59:08.760Z,-15120.99
2018-11-02T07:01:37.119Z,-16549.29
2018-11-02T07:04:05.561Z,-16166.34
2018-11-02T07:06:42.467Z,-16368.55
2018-11-02T07:09:19.788Z,-16208.05
2018-11-02T07:11:48.288Z,-16314.43
2018-11-02T07:14:16.640Z,-17105.86
2018-11-02T07:16:45.072Z,-15838.44
2018-11-02T07:19:13.541Z,-15906.03
2018-11-02T07:21:41.864Z,-16472.29
2018-11-02T07:24:10.160Z,-16543.41
2018-11-02T07:26:38.491Z,-16445.61
2018-11-02T07:29:07.781Z,-17316.06
2018-11-02T07:31:36.191Z,-17597.12
2018-11-02T07:34:04.605Z,-18008.91
2018-11-02T07:36:32.915Z,-18265.27
2018-11-02T07:39:17.706Z,-18222.06
2018-11-02T07:41:46.073Z,-17779.51
2018-11-02T07:44:14.510Z,-18300.29
2018-11-02T07:46:42.799Z,-18460.77
2018-11-02T07:49:11.255Z,-18953.90
2018-11-02T07:51:39.570Z,-19428.23
2018-11-02T07:54:07.947Z,-19981.69
2018-11-02T07:56:36.334Z,-20132.65
2018-11-02T07:59:04.701Z,-20163.74
2018-11-02T08:01:33.064Z,-20935.13
2018-11-02T08:04:01.703Z,-21014.89
2018-11-02T08:06:29.561Z,-20881.87
2018-11-02T08:08:57.835Z,-21122.08
2018-11-02T08:11:26.146Z,-21168.65
2018-11-02T08:13:54.428Z,-21172.77
2018-11-02T08:16:22.759Z,-21174.19
2018-11-02T08:18:51.138Z,-21175.33
2018-11-02T08:21:19.539Z,-21180.16
2018-11-02T08:23:47.983Z,-21180.73
2018-11-02T08:26:16.379Z,-21183.43
2018-11-02T08:28:44.668Z,-21180.87
2018-11-02T08:31:13.052Z,-21190.52
2018-11-02T08:33:41.359Z,-21190.25
2018-11-02T08:36:09.666Z,-21197.20
2018-11-02T08:38:42.372Z,-21196.49
2018-11-02T08:41:10.655Z,-21193.37
2018-11-02T08:43:39.035Z,-21189.82
2018-11-02T08:46:07.411Z,-21198.89
2018-11-02T08:48:35.787Z,-21205.85
2018-11-02T08:51:04.152Z,-21205.71
2018-11-02T08:53:32.451Z,-21209.96
2018-11-02T08:56:00.955Z,-21196.06
2018-11-02T08:58:29.456Z,-21197.34
2018-11-02T09:00:57.576Z,-21196.63
2018-11-02T09:03:25.969Z,-21201.45
2018-11-02T09:05:54.339Z,-21201.59
2018-11-02T09:08:22.781Z,-21203.43
2018-11-02T09:10:51.165Z,-21203.86
2018-11-02T09:13:19.514Z,-21201.03
2018-11-02T09:15:47.857Z,-21211.24
2018-11-02T09:18:16.331Z,-21208.96
2018-11-02T09:20:44.627Z,-21201.88
2018-11-02T09:23:12.979Z,-21215.06
2018-11-02T09:25:41.367Z,-21214.64
2018-11-02T09:28:09.721Z,-21221.30
2018-11-02T09:30:37.983Z,-21218.61
2018-11-02T09:33:06.471Z,-21223.86
2018-11-02T09:35:34.775Z,-21224.85
2018-11-02T09:38:03.153Z,-21229.38
2018-11-02T09:40:31.629Z,-21236.04
2018-11-02T09:42:59.812Z,-21233.49
2018-11-02T09:45:28.171Z,-21243.55
2018-11-02T09:47:56.495Z,-21261.25
2018-11-02T09:50:24.799Z,-21263.65
2018-11-02T09:52:53.091Z,-21247.66
2018-11-02T09:55:21.407Z,-21256.57
2018-11-02T09:57:49.967Z,-21256.29
2018-11-02T10:00:18.836Z,-21257.14
2018-11-02T10:02:47.164Z,-21257.99
2018-11-02T10:05:16.433Z,-21269.03
2018-11-02T10:07:44.781Z,-21279.06
2018-11-02T10:10:20.289Z,-21280.20
2018-11-02T10:12:49.837Z,-21282.60
2018-11-02T10:15:19.103Z,-21268.46
2018-11-02T10:17:47.583Z,-21278.08
2018-11-02T10:20:15.993Z,-21269.03
2018-11-02T10:22:44.430Z,-21265.92
2018-11-02T10:25:12.709Z,-21270.02
2018-11-02T10:27:42.656Z,-21262.80
2018-11-02T10:30:12.556Z,-21270.30
2018-11-02T10:32:42.246Z,-21254.87
2018-11-02T10:35:10.680Z,-21258.28
2018-11-02T10:37:39.229Z,-21257.99
2018-11-02T10:40:11.740Z,-21250.91
2018-11-02T10:42:40.383Z,-21247.52
2018-11-02T10:45:08.820Z,-21246.80
2018-11-02T10:47:37.471Z,-21247.66
2018-11-02T10:50:06.312Z,-21255.01
2018-11-02T10:52:34.868Z,-21249.78
2018-11-02T10:55:03.263Z,-21247.52
2018-11-02T10:57:31.628Z,-21245.96
2018-11-02T10:59:59.939Z,-21252.04
2018-11-02T11:02:33.616Z,-21255.16
2018-11-02T11:05:02.001Z,-21256.57
2018-11-02T11:07:30.386Z,-21257.57
2018-11-02T11:09:58.816Z,-21261.11
2018-11-02T11:12:27.381Z,-21265.07
2018-11-02T11:14:55.418Z,-21273.41
2018-11-02T11:17:24.688Z,-21275.11
2018-11-02T11:19:53.116Z,-21276.80
2018-11-02T11:22:21.523Z,-21286.28
2018-11-02T11:24:49.913Z,-21301.82
2018-11-02T11:27:18.313Z,-21303.23
2018-11-02T11:29:46.665Z,-21319.19
2018-11-02T11:32:14.997Z,-21354.45
2018-11-02T11:34:43.340Z,-21390.49
2018-11-02T11:37:11.698Z,-21384.72
2018-11-02T11:39:40.195Z,-21389.23
2018-11-02T11:42:08.436Z,-21354.87
2018-11-02T11:44:36.736Z,-21381.49
2018-11-02T11:47:05.082Z,-21435.88
2018-11-02T11:49:33.480Z,-21437.99
2018-11-02T11:52:01.837Z,-21452.30
2018-11-02T11:54:30.323Z,-21483.84
2018-11-02T11:56:58.607Z,-21508.75
2018-11-02T11:59:27.007Z,-21483.55
2018-11-02T12:01:55.371Z,-21494.34
2018-11-02T12:04:23.796Z,-21478.23
2018-11-02T12:06:52.294Z,-21440.23
2018-11-02T12:09:20.675Z,-21488.46
2018-11-02T12:11:49.011Z,-21514.76
2018-11-02T12:14:17.379Z,-21499.80
2018-11-02T12:16:45.725Z,-21546.61
2018-11-02T12:19:14.468Z,-21561.41
2018-11-02T12:21:42.904Z,-21522.03
2018-11-02T12:24:11.414Z,-21559.59
2018-11-02T12:26:39.767Z,-21532.09
2018-11-02T12:29:08.864Z,-21532.79
2018-11-02T12:31:37.203Z,-21578.84
2018-11-02T12:34:05.726Z,-21578.27
2018-11-02T12:36:34.099Z,-21541.31
2018-11-02T12:39:02.570Z,-21531.68
2018-11-02T12:41:31.016Z,-21563.91
2018-11-02T12:43:59.525Z,-21499.80
2018-11-02T12:46:41.465Z,-21526.78
2018-11-02T12:49:10.536Z,-21577.71
2018-11-02T12:51:38.824Z,-21494.34
2018-11-02T12:54:07.243Z,-21429.14
2018-11-02T12:56:35.712Z,-21409.48
2018-11-02T12:59:04.959Z,-21399.78
2018-11-02T13:01:33.385Z,-21377.27
2018-11-02T13:04:01.765Z,-21360.09
2018-11-02T13:06:30.115Z,-21374.73
2018-11-02T13:08:58.526Z,-21374.31
2018-11-02T13:11:26.945Z,-21368.39
2018-11-02T13:13:55.379Z,-21356.14
2018-11-02T13:16:23.756Z,-21349.23
2018-11-02T13:18:52.445Z,-21380.78
2018-11-02T13:21:20.801Z,-21381.63
2018-11-02T13:23:49.224Z,-21375.44
2018-11-02T13:26:17.681Z,-21372.06
2018-11-02T13:28:45.940Z,-21392.32
2018-11-02T13:31:14.481Z,-21455.11
2018-11-02T13:33:42.849Z,-21451.88
2018-11-02T13:36:11.285Z,-21493.07
2018-11-02T13:38:39.733Z,-21454.13
2018-11-02T13:41:08.167Z,-21515.46
2018-11-02T13:43:36.965Z,-21494.76
2018-11-02T13:46:05.342Z,-21452.02
2018-11-02T13:48:33.791Z,-21388.66
2018-11-02T13:51:02.250Z,-21379.09
2018-11-02T13:53:30.754Z,-21422.12
2018-11-02T13:55:59.252Z,-21431.81
2018-11-02T14:00:56.400Z,-21494.90
2018-11-02T14:03:24.830Z,-21499.80
2018-11-02T14:05:53.068Z,-21481.73
2018-11-02T14:08:21.469Z,-21440.93
2018-11-02T14:10:54.600Z,-21404.28
2018-11-02T14:13:22.995Z,-21411.02
2018-11-02T14:15:51.537Z,-21413.27
2018-11-02T14:18:19.968Z,-21391.48
2018-11-02T14:20:48.287Z,-21397.11
2018-11-02T14:23:16.695Z,-21384.45
2018-11-02T14:25:45.085Z,-21401.32
2018-11-02T14:28:13.499Z,-21402.59
2018-11-02T14:30:42.071Z,-21386.98
2018-11-02T14:33:10.444Z,-21362.20
2018-11-02T14:35:38.884Z,-21350.50
2018-11-02T14:38:07.239Z,-21347.83
2018-11-02T14:40:35.782Z,-21352.76
2018-11-02T14:43:04.273Z,-21352.90
2018-11-02T14:45:32.679Z,-21350.08
2018-11-02T14:48:01.112Z,-21339.50
2018-11-02T14:50:29.624Z,-21342.18
2018-11-02T14:52:57.922Z,-21337.39
2018-11-02T14:55:26.346Z,-21327.52
2018-11-02T14:57:54.830Z,-21341.62
2018-11-02T15:00:23.324Z,-21337.95
2018-11-02T15:02:51.748Z,-21330.06
2018-11-02T15:05:20.185Z,-21326.95
2018-11-02T15:07:48.593Z,-21331.32
2018-11-02T15:10:17.138Z,-21339.22
2018-11-02T15:12:46.720Z,-21332.31
2018-11-02T15:15:15.205Z,-21329.77
2018-11-02T15:17:43.844Z,-21325.26
2018-11-02T15:20:13.901Z,-21333.16
2018-11-02T15:22:42.427Z,-21330.90
2018-11-02T15:25:11.100Z,-21328.51
2018-11-02T15:27:39.583Z,-21315.94
2018-11-02T15:30:10.066Z,-21319.48
2018-11-02T15:32:38.776Z,-21322.16
2018-11-02T15:35:07.818Z,-21323.71
2018-11-02T15:37:36.142Z,-21318.49
2018-11-02T15:40:04.985Z,-21319.19
2018-11-02T15:42:33.447Z,-21312.98
2018-11-02T15:45:01.796Z,-21311.42
2018-11-02T15:47:30.125Z,-21308.88
2018-11-02T15:49:58.521Z,-21312.41
2018-11-02T15:52:26.967Z,-21309.45
2018-11-02T15:54:55.381Z,-21294.48
2018-11-02T15:57:23.805Z,-21294.62
2018-11-02T15:59:52.164Z,-21298.86
2018-11-02T16:02:20.571Z,-21300.83
2018-11-02T16:04:50.210Z,-21286.84
2018-11-02T16:07:18.720Z,-21289.82
2018-11-02T16:09:47.204Z,-21291.09
2018-11-02T16:12:15.603Z,-21299.70
2018-11-02T16:14:44.096Z,-21291.79
2018-11-02T16:17:12.450Z,-21281.75
2018-11-02T16:19:40.939Z,-21284.30
2018-11-02T16:22:09.284Z,-21287.55
2018-11-02T16:24:37.660Z,-21287.41
2018-11-02T16:27:06.000Z,-21289.82
2018-11-02T16:29:34.430Z,-21274.82
2018-11-02T16:32:03.491Z,-21289.11
2018-11-02T16:34:31.839Z,-21293.20
2018-11-02T16:37:05.205Z,-21276.80
2018-11-02T16:39:33.738Z,-21269.45
2018-11-02T16:42:02.200Z,-21279.21
2018-11-02T16:44:30.666Z,-21273.27
2018-11-02T16:46:59.030Z,-21272.00
2018-11-02T16:49:27.511Z,-21275.81
2018-11-02T16:51:55.992Z,-21281.33
2018-11-02T16:54:25.403Z,-21281.75
2018-11-02T16:56:55.271Z,-21282.74
2018-11-02T16:59:23.733Z,-21282.32
2018-11-02T17:01:52.065Z,-21272.99
2018-11-02T17:04:20.392Z,-21271.43
2018-11-02T17:06:48.733Z,-21266.06
2018-11-02T17:09:17.099Z,-21280.20
2018-11-02T17:11:45.641Z,-21278.79
2018-11-02T17:14:13.948Z,-21266.48
2018-11-02T17:16:42.331Z,-21272.28
2018-11-02T17:19:10.742Z,-21269.17
2018-11-02T17:21:39.256Z,-21274.68
2018-11-02T17:24:07.613Z,-21270.45
2018-11-02T17:26:35.992Z,-21266.62
2018-11-02T17:29:04.453Z,-21259.27
2018-11-02T17:31:32.808Z,-21256.01
2018-11-02T17:34:01.145Z,-21256.01
2018-11-02T17:36:29.627Z,-21266.91
2018-11-02T17:38:58.032Z,-21256.72
2018-11-02T17:41:26.451Z,-21250.06
2018-11-02T17:43:54.938Z,-21251.90
2018-11-02T17:46:23.330Z,-21252.18
2018-11-02T17:48:51.771Z,-21248.51
2018-11-02T17:51:20.116Z,-21241.71
2018-11-02T17:53:48.500Z,-21245.39
2018-11-02T17:56:17.002Z,-21241.00
2018-11-02T17:58:45.535Z,-21249.92
2018-11-02T18:01:13.947Z,-21239.44
2018-11-02T18:03:42.754Z,-21247.93
2018-11-02T18:06:11.067Z,-21244.40
2018-11-02T18:08:39.427Z,-21248.79
2018-11-02T18:11:07.900Z,-21245.39
2018-11-02T18:13:36.397Z,-21235.34
2018-11-02T18:16:04.919Z,-21241.28
2018-11-02T18:18:33.448Z,-21241.99
2018-11-02T18:21:02.041Z,-21242.70
2018-11-02T18:23:30.681Z,-21237.32
2018-11-02T18:25:59.159Z,-21242.70
2018-11-02T18:28:27.556Z,-21244.96
2018-11-02T18:30:56.006Z,-21241.57
2018-11-02T18:33:24.394Z,-21240.15
2018-11-02T18:35:52.792Z,-21228.68
2018-11-02T18:38:21.151Z,-21227.40
2018-11-02T18:40:49.683Z,-21228.82
2018-11-02T18:43:18.170Z,-21231.65
2018-11-02T18:45:46.500Z,-21229.95
2018-11-02T18:48:14.857Z,-21223.01
2018-11-02T18:50:43.249Z,-21222.86
2018-11-02T18:53:11.607Z,-21228.68
2018-11-02T18:55:40.049Z,-21221.73
2018-11-02T18:58:08.679Z,-21230.23
2018-11-02T19:00:37.071Z,-21228.11
2018-11-02T19:03:05.795Z,-21224.99
2018-11-02T19:05:34.377Z,-21220.31
2018-11-02T19:08:02.765Z,-21217.05
2018-11-02T19:10:31.257Z,-21213.79
2018-11-02T19:12:59.800Z,-21209.82
2018-11-02T19:15:28.139Z,-21199.32
2018-11-02T19:17:56.565Z,-21201.03
2018-11-02T19:20:25.046Z,-21202.30
2018-11-02T19:22:53.398Z,-21218.47
2018-11-02T19:25:21.675Z,-21210.39
2018-11-02T19:27:50.224Z,-21206.84
2018-11-02T19:30:18.403Z,-21206.70
2018-11-02T19:32:46.862Z,-21212.65
2018-11-02T19:35:15.547Z,-21213.08
2018-11-02T19:37:43.887Z,-21217.90
2018-11-02T19:40:14.596Z,-21210.10
2018-11-02T19:42:43.149Z,-21215.06
2018-11-02T19:45:12.218Z,-21216.91
2018-11-02T19:47:45.512Z,-21210.39
2018-11-02T19:50:15.182Z,-21208.26
2018-11-02T19:52:43.633Z,-21209.11
2018-11-02T19:55:12.989Z,-21210.10
2018-11-02T19:57:42.692Z,-21214.21
2018-11-02T20:00:12.821Z,-21208.96
2018-11-02T20:02:41.603Z,-21196.20
2018-11-02T20:05:12.086Z,-21194.36
2018-11-02T20:07:40.990Z,-21203.58
2018-11-02T20:10:10.227Z,-21199.61
2018-11-02T20:12:38.591Z,-21200.18
2018-11-02T20:15:08.155Z,-21209.39
2018-11-02T20:17:36.906Z,-21197.34
2018-11-02T20:20:05.982Z,-21195.63
2018-11-02T20:22:34.423Z,-21196.20
2018-11-02T20:25:02.884Z,-21188.54
2018-11-02T20:27:38.218Z,-21187.26
2018-11-02T20:30:15.475Z,-21187.83
2018-11-02T20:32:44.080Z,-21194.21
2018-11-02T20:35:12.686Z,-21195.63
2018-11-02T20:37:42.610Z,-21195.35
2018-11-02T20:40:15.597Z,-21198.47
2018-11-02T20:42:44.605Z,-21199.04
2018-11-02T20:45:13.113Z,-21199.04
2018-11-02T20:47:51.600Z,-21201.03
2018-11-02T20:50:20.032Z,-21204.29
2018-11-02T20:52:48.653Z,-21197.91
2018-11-02T20:55:17.608Z,-21205.14
2018-11-02T20:57:46.112Z,-21195.92
2018-11-02T21:00:16.693Z,-21209.54
2018-11-02T21:02:45.358Z,-21199.89
2018-11-02T21:05:14.865Z,-21212.51
2018-11-02T21:07:43.812Z,-21211.38
2018-11-02T21:10:13.584Z,-21209.68
2018-11-02T21:12:42.141Z,-21202.44
2018-11-02T21:15:13.301Z,-21205.71
2018-11-02T21:17:41.771Z,-21202.16
2018-11-02T21:20:12.991Z,-21204.15
2018-11-02T21:22:41.991Z,-21198.47
2018-11-02T21:25:11.067Z,-21210.81
2018-11-02T21:27:39.928Z,-21206.98
2018-11-02T21:30:11.694Z,-21201.88
2018-11-02T21:32:40.286Z,-21206.41
2018-11-02T21:35:09.098Z,-21197.62
2018-11-02T21:37:37.878Z,-21199.47
2018-11-02T21:40:08.039Z,-21203.86
2018-11-02T21:42:36.555Z,-21198.19
2018-11-02T21:45:05.236Z,-21192.80
2018-11-02T21:47:34.272Z,-21197.34
2018-11-02T21:50:02.728Z,-21192.51
2018-11-02T21:52:31.180Z,-21200.88
2018-11-02T21:54:59.655Z,-21208.40
2018-11-02T21:57:28.084Z,-21202.30
2018-11-02T21:59:56.566Z,-21205.28
2018-11-02T22:02:24.994Z,-21205.85
2018-11-02T22:04:53.726Z,-21205.85
2018-11-02T22:07:22.235Z,-21199.04
2018-11-02T22:09:50.694Z,-21204.57
2018-11-02T22:12:19.003Z,-21201.31
2018-11-02T22:14:47.360Z,-21200.32
2018-11-02T22:17:15.803Z,-21202.73
2018-11-02T22:19:44.232Z,-21205.00
2018-11-02T22:22:12.606Z,-21188.11
2018-11-02T22:24:41.036Z,-21205.42
2018-11-02T22:27:09.451Z,-21201.17
2018-11-02T22:29:37.780Z,-21200.88
2018-11-02T22:32:06.161Z,-21195.92
2018-11-02T22:34:34.621Z,-21205.00
2018-11-02T22:37:02.969Z,-21194.50
2018-11-02T22:39:31.379Z,-21199.18
2018-11-02T22:41:59.744Z,-21192.65
2018-11-02T22:44:28.098Z,-21198.61
2018-11-02T22:46:56.496Z,-21197.20
2018-11-02T22:49:24.830Z,-21198.19
2018-11-02T22:51:53.240Z,-21201.31
2018-11-02T22:54:21.641Z,-21196.35
2018-11-02T22:56:50.256Z,-21198.47
2018-11-02T22:59:18.673Z,-21187.54
2018-11-02T23:01:47.184Z,-21193.37
2018-11-02T23:04:15.754Z,-21189.96
2018-11-02T23:06:44.276Z,-21187.12
2018-11-02T23:09:13.107Z,-21185.41
2018-11-02T23:11:41.563Z,-21183.86
2018-11-02T23:14:10.056Z,-21185.84
2018-11-02T23:16:38.404Z,-21182.86
2018-11-02T23:19:06.854Z,-21179.30
2018-11-02T23:21:35.187Z,-21170.50
2018-11-02T23:24:03.480Z,-21175.47
2018-11-02T23:26:31.856Z,-21172.20
2018-11-02T23:29:00.346Z,-21177.18
2018-11-02T23:31:28.832Z,-21173.77
2018-11-02T23:33:57.272Z,-21173.77
2018-11-02T23:36:25.655Z,-21166.67
2018-11-02T23:38:54.013Z,-21165.68
2018-11-02T23:41:22.378Z,-21171.50
2018-11-02T23:43:50.883Z,-21175.05
2018-11-02T23:46:19.260Z,-21161.27
2018-11-02T23:48:47.617Z,-21156.44
2018-11-02T23:51:16.028Z,-21163.82
2018-11-02T23:53:44.399Z,-21157.71
2018-11-02T23:56:12.779Z,-21161.41
2018-11-02T23:58:41.081Z,-21167.52
